sensor_id;sensor_type;location;lat;lon;timestamp;P1;durP1;ratioP1;P2;durP2;ratioP2
16430;SDS011;8325;49.284;7.238;2024-02-04T05:01:34;1.00;;;0.90;;
16430;SDS011;8325;49.284;7.238;2024-02-04T05:05:46;1.05;;;0.95;;
16430;SDS011;8325;49.284;7.238;2024-02-04T05:09:57;1.10;;;1.00;;
16430;SDS011;8325;49.284;7.238;2024-02-04T05:14:09;1.42;;;1.00;;
16430;SDS011;8325;49.284;7.238;2024-02-04T05:18:21;0.95;;;0.88;;
16430;SDS011;8325;49.284;7.238;2024-02-04T05:22:33;1.20;;;0.98;;
16430;SDS011;8325;49.284;7.238;2024-02-04T05:26:45;0.85;;;0.85;;
16430;SDS011;8325;49.284;7.238;2024-02-04T05:30:57;1.17;;;1.00;;
16430;SDS011;8325;49.284;7.238;2024-02-04T05:35:08;0.93;;;0.90;;
16430;SDS011;8325;49.284;7.238;2024-02-04T05:39:20;1.90;;;1.13;;
16430;SDS011;8325;49.284;7.238;2024-02-04T05:43:34;1.10;;;1.00;;
16430;SDS011;8325;49.284;7.238;2024-02-04T05:47:46;1.08;;;0.98;;
16430;SDS011;8325;49.284;7.238;2024-02-04T05:51:58;1.10;;;1.00;;
16430;SDS011;8325;49.284;7.238;2024-02-04T05:56:09;1.25;;;1.13;;
16430;SDS011;8325;49.284;7.238;2024-02-04T06:00:21;1.20;;;1.10;;
16430;SDS011;8325;49.284;7.238;2024-02-04T06:04:33;1.48;;;1.20;;
16430;SDS011;8325;49.284;7.238;2024-02-04T06:08:45;2.03;;;1.80;;
16430;SDS011;8325;49.284;7.238;2024-02-04T06:12:59;1.40;;;1.30;;
16430;SDS011;8325;49.284;7.238;2024-02-04T06:17:11;2.13;;;1.50;;
16430;SDS011;8325;49.284;7.238;2024-02-04T06:21:23;1.63;;;1.52;;
16430;SDS011;8325;49.284;7.238;2024-02-04T06:25:34;2.22;;;1.83;;
16430;SDS011;8325;49.284;7.238;2024-02-04T06:29:46;2.47;;;1.95;;
16430;SDS011;8325;49.284;7.238;2024-02-04T06:33:58;2.00;;;1.80;;
16430;SDS011;8325;49.284;7.238;2024-02-04T06:38:09;3.70;;;2.17;;
16430;SDS011;8325;49.284;7.238;2024-02-04T06:42:21;2.85;;;2.38;;
16430;SDS011;8325;49.284;7.238;2024-02-04T06:46:33;3.95;;;2.60;;
16430;SDS011;8325;49.284;7.238;2024-02-04T06:50:44;2.00;;;1.80;;
16430;SDS011;8325;49.284;7.238;2024-02-04T06:54:57;2.40;;;1.77;;
16430;SDS011;8325;49.284;7.238;2024-02-04T06:59:08;2.08;;;1.88;;
16430;SDS011;8325;49.284;7.238;2024-02-04T07:03:20;1.75;;;1.65;;
16430;SDS011;8325;49.284;7.238;2024-02-04T07:07:32;2.15;;;1.90;;
16430;SDS011;8325;49.284;7.238;2024-02-04T07:11:44;2.53;;;1.98;;
16430;SDS011;8325;49.284;7.238;2024-02-04T07:15:56;2.00;;;1.80;;
16430;SDS011;8325;49.284;7.238;2024-02-04T07:20:09;3.13;;;2.00;;
16430;SDS011;8325;49.284;7.238;2024-02-04T07:24:21;2.85;;;1.70;;
16430;SDS011;8325;49.284;7.238;2024-02-04T07:28:33;1.83;;;1.70;;
16430;SDS011;8325;49.284;7.238;2024-02-04T07:32:46;1.67;;;1.58;;
16430;SDS011;8325;49.284;7.238;2024-02-04T07:36:57;2.13;;;1.90;;
16430;SDS011;8325;49.284;7.238;2024-02-04T07:41:09;2.10;;;1.73;;
16430;SDS011;8325;49.284;7.238;2024-02-04T07:45:21;1.45;;;1.35;;
16430;SDS011;8325;49.284;7.238;2024-02-04T07:49:32;1.50;;;1.40;;
16430;SDS011;8325;49.284;7.238;2024-02-04T07:53:44;1.60;;;1.48;;
16430;SDS011;8325;49.284;7.238;2024-02-04T07:57:56;2.10;;;1.45;;
16430;SDS011;8325;49.284;7.238;2024-02-04T08:02:08;1.58;;;1.48;;
16430;SDS011;8325;49.284;7.238;2024-02-04T08:06:20;2.20;;;1.58;;
16430;SDS011;8325;49.284;7.238;2024-02-04T08:10:31;5.20;;;1.90;;
16430;SDS011;8325;49.284;7.238;2024-02-04T08:14:43;1.77;;;1.55;;
16430;SDS011;8325;49.284;7.238;2024-02-04T08:18:55;1.77;;;1.67;;
16430;SDS011;8325;49.284;7.238;2024-02-04T08:23:07;1.77;;;1.67;;
16430;SDS011;8325;49.284;7.238;2024-02-04T08:27:20;2.88;;;1.73;;
16430;SDS011;8325;49.284;7.238;2024-02-04T08:31:32;1.58;;;1.38;;
16430;SDS011;8325;49.284;7.238;2024-02-04T08:35:47;2.20;;;1.70;;
16430;SDS011;8325;49.284;7.238;2024-02-04T08:40:00;3.00;;;2.20;;
16430;SDS011;8325;49.284;7.238;2024-02-04T08:44:12;2.78;;;2.47;;
16430;SDS011;8325;49.284;7.238;2024-02-04T08:48:42;2.30;;;2.10;;
16430;SDS011;8325;49.284;7.238;2024-02-04T08:52:54;2.30;;;1.92;;
16430;SDS011;8325;49.284;7.238;2024-02-04T08:57:05;3.22;;;1.88;;
16430;SDS011;8325;49.284;7.238;2024-02-04T09:01:17;3.88;;;3.28;;
16430;SDS011;8325;49.284;7.238;2024-02-04T09:05:30;3.95;;;2.80;;
16430;SDS011;8325;49.284;7.238;2024-02-04T09:09:42;3.47;;;2.95;;
16430;SDS011;8325;49.284;7.238;2024-02-04T09:13:53;3.75;;;2.97;;
16430;SDS011;8325;49.284;7.238;2024-02-04T09:18:05;3.47;;;2.90;;
16430;SDS011;8325;49.284;7.238;2024-02-04T09:22:16;3.10;;;2.70;;
16430;SDS011;8325;49.284;7.238;2024-02-04T09:26:28;4.00;;;2.80;;
16430;SDS011;8325;49.284;7.238;2024-02-04T09:30:40;4.90;;;2.90;;
16430;SDS011;8325;49.284;7.238;2024-02-04T09:34:51;3.17;;;2.88;;
16430;SDS011;8325;49.284;7.238;2024-02-04T09:39:03;4.40;;;3.03;;
16430;SDS011;8325;49.284;7.238;2024-02-04T09:43:15;4.63;;;3.47;;
16430;SDS011;8325;49.284;7.238;2024-02-04T09:47:27;4.95;;;3.35;;
16430;SDS011;8325;49.284;7.238;2024-02-04T09:51:40;4.95;;;3.58;;
16430;SDS011;8325;49.284;7.238;2024-02-04T09:55:52;2.92;;;2.55;;
16430;SDS011;8325;49.284;7.238;2024-02-04T10:00:06;3.65;;;2.70;;
16430;SDS011;8325;49.284;7.238;2024-02-04T10:04:23;3.47;;;2.47;;
16430;SDS011;8325;49.284;7.238;2024-02-04T10:08:35;4.22;;;2.00;;
16430;SDS011;8325;49.284;7.238;2024-02-04T10:12:49;2.25;;;1.90;;
16430;SDS011;8325;49.284;7.238;2024-02-04T10:17:00;2.15;;;1.95;;
16430;SDS011;8325;49.284;7.238;2024-02-04T10:21:19;2.10;;;1.85;;
16430;SDS011;8325;49.284;7.238;2024-02-04T10:25:32;4.45;;;3.47;;
16430;SDS011;8325;49.284;7.238;2024-02-04T10:29:43;2.63;;;2.40;;
16430;SDS011;8325;49.284;7.238;2024-02-04T10:33:55;3.28;;;2.00;;
16430;SDS011;8325;49.284;7.238;2024-02-04T10:38:07;3.40;;;2.35;;
16430;SDS011;8325;49.284;7.238;2024-02-04T10:42:21;4.68;;;3.30;;
16430;SDS011;8325;49.284;7.238;2024-02-04T10:46:36;2.67;;;2.10;;
16430;SDS011;8325;49.284;7.238;2024-02-04T10:50:51;5.05;;;3.60;;
16430;SDS011;8325;49.284;7.238;2024-02-04T10:55:07;2.17;;;1.98;;
16430;SDS011;8325;49.284;7.238;2024-02-04T10:59:22;1.92;;;1.83;;
16430;SDS011;8325;49.284;7.238;2024-02-04T11:03:35;2.70;;;1.95;;
16430;SDS011;8325;49.284;7.238;2024-02-04T11:07:48;2.13;;;1.92;;
16430;SDS011;8325;49.284;7.238;2024-02-04T11:12:00;2.00;;;1.80;;
16430;SDS011;8325;49.284;7.238;2024-02-04T11:16:21;1.92;;;1.70;;
16430;SDS011;8325;49.284;7.238;2024-02-04T11:29:54;2.75;;;2.00;;
16430;SDS011;8325;49.284;7.238;2024-02-04T11:34:06;1.95;;;1.75;;
16430;SDS011;8325;49.284;7.238;2024-02-04T11:38:18;2.50;;;2.15;;
16430;SDS011;8325;49.284;7.238;2024-02-04T11:42:33;3.78;;;3.15;;
16430;SDS011;8325;49.284;7.238;2024-02-04T11:46:45;1.63;;;1.52;;
16430;SDS011;8325;49.284;7.238;2024-02-04T11:50:58;2.53;;;2.10;;
16430;SDS011;8325;49.284;7.238;2024-02-04T11:55:14;1.65;;;1.55;;
16430;SDS011;8325;49.284;7.238;2024-02-04T11:59:27;2.50;;;1.70;;
16430;SDS011;8325;49.284;7.238;2024-02-04T12:03:41;1.35;;;1.25;;
16430;SDS011;8325;49.284;7.238;2024-02-04T12:07:53;1.67;;;1.10;;
16430;SDS011;8325;49.284;7.238;2024-02-04T12:12:05;1.30;;;1.00;;
16430;SDS011;8325;49.284;7.238;2024-02-04T12:16:17;1.27;;;1.17;;
16430;SDS011;8325;49.284;7.238;2024-02-04T12:20:28;1.20;;;1.10;;
16430;SDS011;8325;49.284;7.238;2024-02-04T12:24:40;1.30;;;1.20;;
16430;SDS011;8325;49.284;7.238;2024-02-04T12:28:52;1.17;;;1.08;;
16430;SDS011;8325;49.284;7.238;2024-02-04T12:33:05;2.33;;;1.38;;
16430;SDS011;8325;49.284;7.238;2024-02-04T12:37:17;1.98;;;1.10;;
16430;SDS011;8325;49.284;7.238;2024-02-04T12:41:29;3.55;;;1.00;;
16430;SDS011;8325;49.284;7.238;2024-02-04T12:45:41;1.40;;;1.30;;
16430;SDS011;8325;49.284;7.238;2024-02-04T12:49:57;1.23;;;1.02;;
16430;SDS011;8325;49.284;7.238;2024-02-04T12:54:10;1.02;;;1.00;;
16430;SDS011;8325;49.284;7.238;2024-02-04T12:58:24;1.30;;;1.10;;
16430;SDS011;8325;49.284;7.238;2024-02-04T13:02:36;1.00;;;0.90;;
16430;SDS011;8325;49.284;7.238;2024-02-04T13:06:47;1.45;;;1.00;;
16430;SDS011;8325;49.284;7.238;2024-02-04T13:10:59;1.20;;;1.10;;
16430;SDS011;8325;49.284;7.238;2024-02-04T13:15:12;1.75;;;1.10;;
16430;SDS011;8325;49.284;7.238;2024-02-04T13:19:23;1.70;;;1.58;;
16430;SDS011;8325;49.284;7.238;2024-02-04T13:23:35;2.38;;;1.58;;
16430;SDS011;8325;49.284;7.238;2024-02-04T13:27:47;1.33;;;1.23;;
16430;SDS011;8325;49.284;7.238;2024-02-04T13:32:00;1.10;;;1.00;;
16430;SDS011;8325;49.284;7.238;2024-02-04T13:36:12;0.80;;;0.80;;
16430;SDS011;8325;49.284;7.238;2024-02-04T13:40:24;3.53;;;1.10;;
16430;SDS011;8325;49.284;7.238;2024-02-04T13:44:36;1.50;;;1.00;;
16430;SDS011;8325;49.284;7.238;2024-02-04T13:48:48;0.77;;;0.77;;
16430;SDS011;8325;49.284;7.238;2024-02-04T13:52:59;1.65;;;0.88;;
16430;SDS011;8325;49.284;7.238;2024-02-04T13:57:11;0.95;;;0.90;;
16430;SDS011;8325;49.284;7.238;2024-02-04T14:01:23;0.70;;;0.70;;
16430;SDS011;8325;49.284;7.238;2024-02-04T14:05:35;0.90;;;0.90;;
16430;SDS011;8325;49.284;7.238;2024-02-04T14:09:46;1.40;;;1.00;;
16430;SDS011;8325;49.284;7.238;2024-02-04T14:13:58;0.82;;;0.80;;
16430;SDS011;8325;49.284;7.238;2024-02-04T14:18:10;0.73;;;0.73;;
16430;SDS011;8325;49.284;7.238;2024-02-04T14:22:21;0.82;;;0.70;;
16430;SDS011;8325;49.284;7.238;2024-02-04T14:26:33;1.70;;;0.95;;
16430;SDS011;8325;49.284;7.238;2024-02-04T14:30:45;0.82;;;0.80;;
16430;SDS011;8325;49.284;7.238;2024-02-04T14:34:57;1.33;;;1.08;;
16430;SDS011;8325;49.284;7.238;2024-02-04T14:39:09;1.38;;;1.25;;
16430;SDS011;8325;49.284;7.238;2024-02-04T14:43:22;0.70;;;0.70;;
16430;SDS011;8325;49.284;7.238;2024-02-04T14:47:34;1.17;;;1.00;;
16430;SDS011;8325;49.284;7.238;2024-02-04T14:51:46;1.95;;;1.02;;
16430;SDS011;8325;49.284;7.238;2024-02-04T14:55:58;1.70;;;1.02;;
16430;SDS011;8325;49.284;7.238;2024-02-04T15:00:10;1.00;;;0.88;;
16430;SDS011;8325;49.284;7.238;2024-02-04T15:04:22;0.75;;;0.75;;
16430;SDS011;8325;49.284;7.238;2024-02-04T15:08:34;0.93;;;0.65;;
16430;SDS011;8325;49.284;7.238;2024-02-04T15:12:46;0.80;;;0.80;;
16430;SDS011;8325;49.284;7.238;2024-02-04T15:16:58;0.70;;;0.70;;
16430;SDS011;8325;49.284;7.238;2024-02-04T15:21:09;0.73;;;0.73;;
16430;SDS011;8325;49.284;7.238;2024-02-04T15:25:21;1.65;;;0.70;;
16430;SDS011;8325;49.284;7.238;2024-02-04T15:29:33;0.85;;;0.85;;
16430;SDS011;8325;49.284;7.238;2024-02-04T15:33:47;1.27;;;0.88;;
16430;SDS011;8325;49.284;7.238;2024-02-04T15:37:59;3.95;;;2.22;;
16430;SDS011;8325;49.284;7.238;2024-02-04T15:42:10;1.35;;;1.15;;
16430;SDS011;8325;49.284;7.238;2024-02-04T15:46:22;0.90;;;0.90;;
16430;SDS011;8325;49.284;7.238;2024-02-04T15:50:35;1.60;;;1.17;;
16430;SDS011;8325;49.284;7.238;2024-02-04T15:54:49;1.23;;;0.98;;
16430;SDS011;8325;49.284;7.238;2024-02-04T15:59:06;2.35;;;0.98;;
16430;SDS011;8325;49.284;7.238;2024-02-04T16:03:22;1.23;;;1.13;;
16430;SDS011;8325;49.284;7.238;2024-02-04T16:07:34;1.50;;;1.40;;
16430;SDS011;8325;49.284;7.238;2024-02-04T16:11:50;1.67;;;1.13;;
16430;SDS011;8325;49.284;7.238;2024-02-04T16:16:10;1.08;;;0.90;;
16430;SDS011;8325;49.284;7.238;2024-02-04T16:20:24;0.77;;;0.77;;
16430;SDS011;8325;49.284;7.238;2024-02-04T16:24:37;1.52;;;1.20;;
16430;SDS011;8325;49.284;7.238;2024-02-04T16:28:50;1.60;;;1.00;;
16430;SDS011;8325;49.284;7.238;2024-02-04T16:33:01;1.27;;;1.05;;
16430;SDS011;8325;49.284;7.238;2024-02-04T16:37:13;1.88;;;1.10;;
16430;SDS011;8325;49.284;7.238;2024-02-04T16:41:25;2.00;;;1.05;;
16430;SDS011;8325;49.284;7.238;2024-02-04T16:45:37;1.52;;;1.00;;
16430;SDS011;8325;49.284;7.238;2024-02-04T16:49:50;2.22;;;1.10;;
16430;SDS011;8325;49.284;7.238;2024-02-04T16:54:02;1.50;;;1.40;;
16430;SDS011;8325;49.284;7.238;2024-02-04T16:58:13;2.45;;;1.92;;
16430;SDS011;8325;49.284;7.238;2024-02-04T17:02:25;1.38;;;1.27;;
16430;SDS011;8325;49.284;7.238;2024-02-04T17:06:37;1.50;;;1.40;;
16430;SDS011;8325;49.284;7.238;2024-02-04T17:10:50;1.50;;;1.40;;
16430;SDS011;8325;49.284;7.238;2024-02-04T17:15:03;2.47;;;1.40;;
16430;SDS011;8325;49.284;7.238;2024-02-04T17:19:38;1.63;;;1.42;;
16430;SDS011;8325;49.284;7.238;2024-02-04T17:23:53;0.90;;;0.90;;
16430;SDS011;8325;49.284;7.238;2024-02-04T17:28:14;1.45;;;1.25;;
16430;SDS011;8325;49.284;7.238;2024-02-04T17:32:26;1.58;;;1.10;;
16430;SDS011;8325;49.284;7.238;2024-02-04T17:36:40;1.40;;;1.00;;
16430;SDS011;8325;49.284;7.238;2024-02-04T17:40:52;1.55;;;1.23;;
16430;SDS011;8325;49.284;7.238;2024-02-04T17:45:03;0.90;;;0.90;;
16430;SDS011;8325;49.284;7.238;2024-02-04T17:49:18;1.48;;;1.20;;
16430;SDS011;8325;49.284;7.238;2024-02-04T17:53:30;1.70;;;1.40;;
16430;SDS011;8325;49.284;7.238;2024-02-04T17:57:41;1.40;;;1.05;;
16430;SDS011;8325;49.284;7.238;2024-02-04T18:01:53;2.17;;;1.40;;
16430;SDS011;8325;49.284;7.238;2024-02-04T18:06:08;1.60;;;1.38;;
16430;SDS011;8325;49.284;7.238;2024-02-04T18:10:19;1.20;;;1.10;;
16430;SDS011;8325;49.284;7.238;2024-02-04T18:14:34;0.90;;;0.90;;
16430;SDS011;8325;49.284;7.238;2024-02-04T18:18:48;0.80;;;0.80;;
16430;SDS011;8325;49.284;7.238;2024-02-04T18:23:00;1.08;;;0.98;;
16430;SDS011;8325;49.284;7.238;2024-02-04T18:27:12;0.98;;;0.95;;
16430;SDS011;8325;49.284;7.238;2024-02-04T18:31:24;1.65;;;1.55;;
16430;SDS011;8325;49.284;7.238;2024-02-04T18:35:36;0.80;;;0.80;;
16430;SDS011;8325;49.284;7.238;2024-02-04T18:39:48;1.15;;;1.08;;
16430;SDS011;8325;49.284;7.238;2024-02-04T18:44:00;0.80;;;0.80;;
16430;SDS011;8325;49.284;7.238;2024-02-04T18:48:13;1.23;;;1.13;;
16430;SDS011;8325;49.284;7.238;2024-02-04T18:52:24;1.20;;;1.10;;
16430;SDS011;8325;49.284;7.238;2024-02-04T18:56:41;2.17;;;1.23;;
16430;SDS011;8325;49.284;7.238;2024-02-04T19:00:55;1.85;;;1.20;;
16430;SDS011;8325;49.284;7.238;2024-02-04T19:05:07;1.25;;;1.15;;
16430;SDS011;8325;49.284;7.238;2024-02-04T19:09:20;2.20;;;1.52;;
16430;SDS011;8325;49.284;7.238;2024-02-04T19:13:31;2.05;;;1.50;;
16430;SDS011;8325;49.284;7.238;2024-02-04T19:17:43;2.53;;;2.30;;
16430;SDS011;8325;49.284;7.238;2024-02-04T19:21:55;2.33;;;1.80;;
16430;SDS011;8325;49.284;7.238;2024-02-04T19:26:07;2.00;;;1.60;;
16430;SDS011;8325;49.284;7.238;2024-02-04T19:30:21;2.78;;;2.17;;
16430;SDS011;8325;49.284;7.238;2024-02-04T19:34:36;2.08;;;1.88;;
16430;SDS011;8325;49.284;7.238;2024-02-04T19:38:48;1.80;;;1.70;;
16430;SDS011;8325;49.284;7.238;2024-02-04T19:43:00;3.80;;;2.13;;
16430;SDS011;8325;49.284;7.238;2024-02-04T19:47:12;2.20;;;2.00;;
16430;SDS011;8325;49.284;7.238;2024-02-04T19:51:24;2.80;;;2.22;;
16430;SDS011;8325;49.284;7.238;2024-02-04T19:55:37;2.85;;;2.25;;
16430;SDS011;8325;49.284;7.238;2024-02-04T19:59:48;1.88;;;1.67;;
16430;SDS011;8325;49.284;7.238;2024-02-04T20:04:00;2.65;;;1.98;;
16430;SDS011;8325;49.284;7.238;2024-02-04T20:08:12;2.20;;;2.00;;
16430;SDS011;8325;49.284;7.238;2024-02-04T20:12:24;2.33;;;2.13;;
16430;SDS011;8325;49.284;7.238;2024-02-04T20:16:37;2.60;;;2.00;;
16430;SDS011;8325;49.284;7.238;2024-02-04T20:20:49;2.17;;;1.90;;
16430;SDS011;8325;49.284;7.238;2024-02-04T20:25:01;2.35;;;2.15;;
16430;SDS011;8325;49.284;7.238;2024-02-04T20:29:15;3.17;;;2.60;;
16430;SDS011;8325;49.284;7.238;2024-02-04T20:33:26;3.08;;;2.22;;
16430;SDS011;8325;49.284;7.238;2024-02-04T20:37:38;2.65;;;2.10;;
16430;SDS011;8325;49.284;7.238;2024-02-04T20:41:51;3.10;;;2.67;;
16430;SDS011;8325;49.284;7.238;2024-02-04T20:46:07;3.30;;;2.60;;
16430;SDS011;8325;49.284;7.238;2024-02-04T20:50:19;3.35;;;2.72;;
16430;SDS011;8325;49.284;7.238;2024-02-04T20:54:32;3.05;;;2.60;;
16430;SDS011;8325;49.284;7.238;2024-02-04T20:58:45;2.70;;;2.47;;
16430;SDS011;8325;49.284;7.238;2024-02-04T21:02:56;4.45;;;2.70;;
16430;SDS011;8325;49.284;7.238;2024-02-04T21:07:08;3.40;;;2.63;;
16430;SDS011;8325;49.284;7.238;2024-02-04T21:15:35;3.35;;;2.70;;
16430;SDS011;8325;49.284;7.238;2024-02-04T21:19:48;4.00;;;3.10;;
16430;SDS011;8325;49.284;7.238;2024-02-04T21:24:01;5.07;;;3.58;;
16430;SDS011;8325;49.284;7.238;2024-02-04T21:28:13;4.25;;;3.05;;
16430;SDS011;8325;49.284;7.238;2024-02-04T21:32:25;4.20;;;3.15;;
16430;SDS011;8325;49.284;7.238;2024-02-04T21:36:37;4.82;;;3.08;;
16430;SDS011;8325;49.284;7.238;2024-02-04T21:40:49;4.30;;;3.40;;
16430;SDS011;8325;49.284;7.238;2024-02-04T21:45:00;3.70;;;2.72;;
16430;SDS011;8325;49.284;7.238;2024-02-04T21:49:12;3.70;;;2.88;;
16430;SDS011;8325;49.284;7.238;2024-02-04T21:53:25;6.20;;;3.70;;
16430;SDS011;8325;49.284;7.238;2024-02-04T21:57:37;4.75;;;2.55;;
16430;SDS011;8325;49.284;7.238;2024-02-04T22:01:51;4.13;;;2.20;;
16430;SDS011;8325;49.284;7.238;2024-02-04T22:06:05;3.45;;;2.75;;
16430;SDS011;8325;49.284;7.238;2024-02-04T22:10:17;2.97;;;2.08;;
16430;SDS011;8325;49.284;7.238;2024-02-04T22:14:29;4.53;;;2.42;;
16430;SDS011;8325;49.284;7.238;2024-02-04T22:18:40;2.08;;;1.88;;
16430;SDS011;8325;49.284;7.238;2024-02-04T22:22:52;3.80;;;2.17;;
16430;SDS011;8325;49.284;7.238;2024-02-04T22:27:04;1.75;;;1.20;;
